sensor_id;sensor_type;location;lat;lon;timestamp;temperature;humidity
21672;DHT22;10997;52.242;8.168;2023-04-03T00:02:04;2.60;99.90
21672;DHT22;10997;52.242;8.168;2023-04-03T00:07:04;2.60;99.90
21672;DHT22;10997;52.242;8.168;2023-04-03T00:12:05;2.60;99.90
21672;DHT22;10997;52.242;8.168;2023-04-03T00:17:05;2.50;99.90
21672;DHT22;10997;52.242;8.168;2023-04-03T00:22:06;2.50;99.90
21672;DHT22;10997;52.242;8.168;2023-04-03T00:27:06;2.40;99.90
21672;DHT22;10997;52.242;8.168;2023-04-03T00:32:07;2.30;99.90
21672;DHT22;10997;52.242;8.168;2023-04-03T00:37:08;2.30;99.90
21672;DHT22;10997;52.242;8.168;2023-04-03T00:42:08;2.20;99.90
21672;DHT22;10997;52.242;8.168;2023-04-03T00:47:11;2.20;99.90
21672;DHT22;10997;52.242;8.168;2023-04-03T00:52:16;2.20;99.90
21672;DHT22;10997;52.242;8.168;2023-04-03T00:57:18;2.10;99.90
21672;DHT22;10997;52.242;8.168;2023-04-03T01:02:19;2.00;99.90
21672;DHT22;10997;52.242;8.168;2023-04-03T01:07:23;1.90;99.90
21672;DHT22;10997;52.242;8.168;2023-04-03T01:12:29;1.80;99.90
21672;DHT22;10997;52.242;8.168;2023-04-03T01:17:43;1.70;99.90
21672;DHT22;10997;52.242;8.168;2023-04-03T01:28:21;1.60;99.90
21672;DHT22;10997;52.242;8.168;2023-04-03T01:33:22;1.60;99.90
21672;DHT22;10997;52.242;8.168;2023-04-03T01:38:23;1.50;99.90
21672;DHT22;10997;52.242;8.168;2023-04-03T01:43:24;1.50;99.90
21672;DHT22;10997;52.242;8.168;2023-04-03T01:48:24;1.40;99.90
21672;DHT22;10997;52.242;8.168;2023-04-03T01:53:25;1.30;99.90
21672;DHT22;10997;52.242;8.168;2023-04-03T01:58:26;1.30;99.90
21672;DHT22;10997;52.242;8.168;2023-04-03T02:03:26;1.20;99.90
21672;DHT22;10997;52.242;8.168;2023-04-03T02:08:27;1.20;99.90
21672;DHT22;10997;52.242;8.168;2023-04-03T02:13:27;1.10;99.90
21672;DHT22;10997;52.242;8.168;2023-04-03T02:18:28;1.00;99.90
21672;DHT22;10997;52.242;8.168;2023-04-03T02:23:29;0.90;99.90
21672;DHT22;10997;52.242;8.168;2023-04-03T02:28:29;0.80;99.90
21672;DHT22;10997;52.242;8.168;2023-04-03T02:33:30;0.70;99.90
21672;DHT22;10997;52.242;8.168;2023-04-03T02:38:31;0.70;99.90
21672;DHT22;10997;52.242;8.168;2023-04-03T02:43:32;0.70;99.90
21672;DHT22;10997;52.242;8.168;2023-04-03T02:48:33;0.60;99.90
21672;DHT22;10997;52.242;8.168;2023-04-03T02:53:34;0.50;99.90
21672;DHT22;10997;52.242;8.168;2023-04-03T02:58:34;0.40;99.90
21672;DHT22;10997;52.242;8.168;2023-04-03T03:03:35;0.40;99.90
21672;DHT22;10997;52.242;8.168;2023-04-03T03:08:36;0.30;99.90
21672;DHT22;10997;52.242;8.168;2023-04-03T03:13:38;0.20;99.90
21672;DHT22;10997;52.242;8.168;2023-04-03T03:18:38;0.10;99.90
21672;DHT22;10997;52.242;8.168;2023-04-03T03:23:39;0.10;99.90
21672;DHT22;10997;52.242;8.168;2023-04-03T03:28:40;0.00;99.90
21672;DHT22;10997;52.242;8.168;2023-04-03T03:33:41;0.00;99.90
21672;DHT22;10997;52.242;8.168;2023-04-03T03:38:41;-0.10;99.90
21672;DHT22;10997;52.242;8.168;2023-04-03T03:43:42;-0.10;99.90
21672;DHT22;10997;52.242;8.168;2023-04-03T03:48:43;-0.10;99.90
21672;DHT22;10997;52.242;8.168;2023-04-03T03:53:43;-0.20;99.90
21672;DHT22;10997;52.242;8.168;2023-04-03T03:58:44;-0.20;99.90
21672;DHT22;10997;52.242;8.168;2023-04-03T04:03:45;-0.20;99.90
21672;DHT22;10997;52.242;8.168;2023-04-03T04:08:46;-0.30;99.90
21672;DHT22;10997;52.242;8.168;2023-04-03T04:13:46;-0.30;99.90
21672;DHT22;10997;52.242;8.168;2023-04-03T04:18:47;-0.40;99.90
21672;DHT22;10997;52.242;8.168;2023-04-03T04:23:47;-0.40;99.90
21672;DHT22;10997;52.242;8.168;2023-04-03T04:28:48;-0.40;99.90
21672;DHT22;10997;52.242;8.168;2023-04-03T04:33:48;-0.40;99.90
21672;DHT22;10997;52.242;8.168;2023-04-03T04:38:49;-0.40;99.90
21672;DHT22;10997;52.242;8.168;2023-04-03T04:43:53;-0.50;99.90
21672;DHT22;10997;52.242;8.168;2023-04-03T04:48:53;-0.50;99.90
21672;DHT22;10997;52.242;8.168;2023-04-03T04:53:54;-0.50;99.90
21672;DHT22;10997;52.242;8.168;2023-04-03T04:58:54;-0.50;99.90
21672;DHT22;10997;52.242;8.168;2023-04-03T05:03:55;-0.50;99.90
21672;DHT22;10997;52.242;8.168;2023-04-03T05:08:56;-0.60;99.90
21672;DHT22;10997;52.242;8.168;2023-04-03T05:13:56;-0.60;99.90
21672;DHT22;10997;52.242;8.168;2023-04-03T05:18:57;-0.60;99.90
21672;DHT22;10997;52.242;8.168;2023-04-03T05:23:59;-0.60;99.90
21672;DHT22;10997;52.242;8.168;2023-04-03T05:28:59;-0.60;99.90
21672;DHT22;10997;52.242;8.168;2023-04-03T05:34:00;-0.60;99.90
21672;DHT22;10997;52.242;8.168;2023-04-03T05:39:01;-0.60;99.90
21672;DHT22;10997;52.242;8.168;2023-04-03T05:44:01;-0.50;99.90
21672;DHT22;10997;52.242;8.168;2023-04-03T05:49:02;-0.50;99.90
21672;DHT22;10997;52.242;8.168;2023-04-03T05:54:20;-0.40;99.90
21672;DHT22;10997;52.242;8.168;2023-04-03T05:59:23;-0.40;99.90
21672;DHT22;10997;52.242;8.168;2023-04-03T06:04:23;-0.30;99.90
21672;DHT22;10997;52.242;8.168;2023-04-03T06:09:27;-0.30;99.90
21672;DHT22;10997;52.242;8.168;2023-04-03T06:14:29;-0.20;99.90
21672;DHT22;10997;52.242;8.168;2023-04-03T06:19:30;-0.10;99.90
21672;DHT22;10997;52.242;8.168;2023-04-03T06:24:30;0.10;99.90
21672;DHT22;10997;52.242;8.168;2023-04-03T06:29:31;0.30;99.90
21672;DHT22;10997;52.242;8.168;2023-04-03T06:34:32;0.50;99.90
21672;DHT22;10997;52.242;8.168;2023-04-03T06:39:32;0.70;99.90
21672;DHT22;10997;52.242;8.168;2023-04-03T06:44:33;0.80;99.90
21672;DHT22;10997;52.242;8.168;2023-04-03T06:49:34;1.00;99.90
21672;DHT22;10997;52.242;8.168;2023-04-03T06:54:37;1.20;99.90
21672;DHT22;10997;52.242;8.168;2023-04-03T06:59:38;1.40;99.90
21672;DHT22;10997;52.242;8.168;2023-04-03T07:04:38;1.50;99.90
21672;DHT22;10997;52.242;8.168;2023-04-03T07:09:39;1.60;99.90
21672;DHT22;10997;52.242;8.168;2023-04-03T07:14:39;1.80;99.90
21672;DHT22;10997;52.242;8.168;2023-04-03T07:19:40;2.00;99.90
21672;DHT22;10997;52.242;8.168;2023-04-03T07:24:41;2.30;99.90
21672;DHT22;10997;52.242;8.168;2023-04-03T07:29:41;2.50;99.90
21672;DHT22;10997;52.242;8.168;2023-04-03T07:34:43;2.80;99.90
21672;DHT22;10997;52.242;8.168;2023-04-03T07:39:44;3.00;99.90
21672;DHT22;10997;52.242;8.168;2023-04-03T07:44:45;3.20;99.90
21672;DHT22;10997;52.242;8.168;2023-04-03T07:49:46;3.30;99.90
21672;DHT22;10997;52.242;8.168;2023-04-03T07:54:47;3.50;99.90
21672;DHT22;10997;52.242;8.168;2023-04-03T07:59:47;3.70;99.90
21672;DHT22;10997;52.242;8.168;2023-04-03T08:04:48;3.80;99.90
21672;DHT22;10997;52.242;8.168;2023-04-03T08:09:49;4.00;99.90
21672;DHT22;10997;52.242;8.168;2023-04-03T08:14:50;4.30;99.90
21672;DHT22;10997;52.242;8.168;2023-04-03T08:19:51;4.40;99.90
21672;DHT22;10997;52.242;8.168;2023-04-03T08:24:51;4.50;99.90
21672;DHT22;10997;52.242;8.168;2023-04-03T08:29:52;4.70;99.90
21672;DHT22;10997;52.242;8.168;2023-04-03T08:34:53;5.00;99.90
21672;DHT22;10997;52.242;8.168;2023-04-03T08:39:53;5.00;99.90
21672;DHT22;10997;52.242;8.168;2023-04-03T08:44:59;5.00;99.90
21672;DHT22;10997;52.242;8.168;2023-04-03T08:50:07;5.00;99.90
21672;DHT22;10997;52.242;8.168;2023-04-03T08:55:27;4.90;99.90
21672;DHT22;10997;52.242;8.168;2023-04-03T09:00:34;4.90;99.90
21672;DHT22;10997;52.242;8.168;2023-04-03T09:06:02;5.10;99.90
21672;DHT22;10997;52.242;8.168;2023-04-03T09:11:32;5.30;99.90
21672;DHT22;10997;52.242;8.168;2023-04-03T09:16:45;5.50;99.90
21672;DHT22;10997;52.242;8.168;2023-04-03T09:21:48;5.70;99.90
21672;DHT22;10997;52.242;8.168;2023-04-03T09:26:53;5.90;99.90
21672;DHT22;10997;52.242;8.168;2023-04-03T09:32:01;6.00;99.90
21672;DHT22;10997;52.242;8.168;2023-04-03T09:37:03;5.90;99.90
21672;DHT22;10997;52.242;8.168;2023-04-03T09:42:21;6.10;99.90
21672;DHT22;10997;52.242;8.168;2023-04-03T09:47:29;6.10;99.90
21672;DHT22;10997;52.242;8.168;2023-04-03T09:52:30;6.30;99.90
21672;DHT22;10997;52.242;8.168;2023-04-03T09:57:32;6.40;99.90
21672;DHT22;10997;52.242;8.168;2023-04-03T10:02:36;6.50;99.90
21672;DHT22;10997;52.242;8.168;2023-04-03T10:07:38;6.50;99.90
21672;DHT22;10997;52.242;8.168;2023-04-03T10:12:38;6.60;99.90
21672;DHT22;10997;52.242;8.168;2023-04-03T10:22:59;6.80;99.90
21672;DHT22;10997;52.242;8.168;2023-04-03T10:33:36;7.00;99.90
21672;DHT22;10997;52.242;8.168;2023-04-03T10:38:55;7.00;99.90
21672;DHT22;10997;52.242;8.168;2023-04-03T10:49:10;7.40;99.90
21672;DHT22;10997;52.242;8.168;2023-04-03T10:54:25;8.00;99.90
21672;DHT22;10997;52.242;8.168;2023-04-03T11:04:38;8.00;99.90
21672;DHT22;10997;52.242;8.168;2023-04-03T11:09:43;7.70;99.90
21672;DHT22;10997;52.242;8.168;2023-04-03T11:14:47;7.40;99.60
21672;DHT22;10997;52.242;8.168;2023-04-03T11:30:18;7.50;98.70
21672;DHT22;10997;52.242;8.168;2023-04-03T11:35:21;7.20;98.70
21672;DHT22;10997;52.242;8.168;2023-04-03T11:40:29;7.40;99.80
21672;DHT22;10997;52.242;8.168;2023-04-03T11:45:36;8.30;99.00
21672;DHT22;10997;52.242;8.168;2023-04-03T12:00:52;10.20;97.40
21672;DHT22;10997;52.242;8.168;2023-04-03T12:11:28;10.40;94.80
21672;DHT22;10997;52.242;8.168;2023-04-03T12:27:07;11.50;94.50
21672;DHT22;10997;52.242;8.168;2023-04-03T12:48:24;9.00;94.50
21672;DHT22;10997;52.242;8.168;2023-04-03T12:53:34;8.60;94.60
21672;DHT22;10997;52.242;8.168;2023-04-03T12:58:35;8.30;94.40
21672;DHT22;10997;52.242;8.168;2023-04-03T13:03:39;8.80;95.10
21672;DHT22;10997;52.242;8.168;2023-04-03T13:08:49;9.10;94.60
21672;DHT22;10997;52.242;8.168;2023-04-03T13:14:05;8.90;93.00
21672;DHT22;10997;52.242;8.168;2023-04-03T13:19:18;8.50;93.10
21672;DHT22;10997;52.242;8.168;2023-04-03T13:24:18;8.40;93.20
21672;DHT22;10997;52.242;8.168;2023-04-03T13:29:32;8.60;93.30
21672;DHT22;10997;52.242;8.168;2023-04-03T13:34:39;8.70;93.20
21672;DHT22;10997;52.242;8.168;2023-04-03T13:39:41;8.70;92.20
21672;DHT22;10997;52.242;8.168;2023-04-03T13:44:42;8.70;92.00
21672;DHT22;10997;52.242;8.168;2023-04-03T13:50:13;8.80;92.70
21672;DHT22;10997;52.242;8.168;2023-04-03T14:05:28;8.70;92.70
21672;DHT22;10997;52.242;8.168;2023-04-03T14:10:30;8.50;92.30
21672;DHT22;10997;52.242;8.168;2023-04-03T14:15:31;8.30;92.90
21672;DHT22;10997;52.242;8.168;2023-04-03T14:20:32;8.70;92.10
21672;DHT22;10997;52.242;8.168;2023-04-03T14:25:33;9.10;91.50
21672;DHT22;10997;52.242;8.168;2023-04-03T14:30:34;9.30;91.30
21672;DHT22;10997;52.242;8.168;2023-04-03T14:35:36;9.70;90.70
21672;DHT22;10997;52.242;8.168;2023-04-03T14:40:37;9.80;90.20
21672;DHT22;10997;52.242;8.168;2023-04-03T14:45:38;10.30;90.30
21672;DHT22;10997;52.242;8.168;2023-04-03T14:50:39;10.60;88.10
21672;DHT22;10997;52.242;8.168;2023-04-03T14:55:40;10.90;89.80
21672;DHT22;10997;52.242;8.168;2023-04-03T15:00:41;10.80;87.20
21672;DHT22;10997;52.242;8.168;2023-04-03T15:05:43;10.30;86.20
21672;DHT22;10997;52.242;8.168;2023-04-03T15:10:44;9.80;89.30
21672;DHT22;10997;52.242;8.168;2023-04-03T15:15:45;9.40;89.70
21672;DHT22;10997;52.242;8.168;2023-04-03T15:20:46;9.50;89.80
21672;DHT22;10997;52.242;8.168;2023-04-03T15:25:48;9.60;89.90
21672;DHT22;10997;52.242;8.168;2023-04-03T15:30:49;9.30;90.00
21672;DHT22;10997;52.242;8.168;2023-04-03T15:35:50;9.80;90.50
21672;DHT22;10997;52.242;8.168;2023-04-03T15:40:51;9.90;88.60
21672;DHT22;10997;52.242;8.168;2023-04-03T15:45:51;9.40;88.30
21672;DHT22;10997;52.242;8.168;2023-04-03T15:50:52;9.00;88.40
21672;DHT22;10997;52.242;8.168;2023-04-03T15:55:52;9.00;89.00
21672;DHT22;10997;52.242;8.168;2023-04-03T16:00:53;9.10;86.90
21672;DHT22;10997;52.242;8.168;2023-04-03T16:05:54;9.50;87.00
21672;DHT22;10997;52.242;8.168;2023-04-03T16:10:55;9.90;87.00
21672;DHT22;10997;52.242;8.168;2023-04-03T16:15:55;9.70;85.50
21672;DHT22;10997;52.242;8.168;2023-04-03T16:20:56;9.10;86.30
21672;DHT22;10997;52.242;8.168;2023-04-03T16:25:57;8.70;88.30
21672;DHT22;10997;52.242;8.168;2023-04-03T16:30:58;8.90;88.90
21672;DHT22;10997;52.242;8.168;2023-04-03T16:36:00;9.20;88.00
21672;DHT22;10997;52.242;8.168;2023-04-03T16:41:00;9.30;87.50
21672;DHT22;10997;52.242;8.168;2023-04-03T16:46:04;9.30;87.30
21672;DHT22;10997;52.242;8.168;2023-04-03T16:51:05;9.10;86.20
21672;DHT22;10997;52.242;8.168;2023-04-03T16:56:06;8.90;86.20
21672;DHT22;10997;52.242;8.168;2023-04-03T17:01:11;8.80;86.00
21672;DHT22;10997;52.242;8.168;2023-04-03T17:06:29;8.70;86.80
21672;DHT22;10997;52.242;8.168;2023-04-03T17:11:31;8.50;86.80
21672;DHT22;10997;52.242;8.168;2023-04-03T17:16:34;8.50;87.80
21672;DHT22;10997;52.242;8.168;2023-04-03T17:21:35;8.60;88.80
21672;DHT22;10997;52.242;8.168;2023-04-03T17:26:36;8.50;88.80
21672;DHT22;10997;52.242;8.168;2023-04-03T17:31:37;8.50;89.90
21672;DHT22;10997;52.242;8.168;2023-04-03T17:36:38;8.40;90.00
21672;DHT22;10997;52.242;8.168;2023-04-03T17:41:39;8.30;89.00
21672;DHT22;10997;52.242;8.168;2023-04-03T17:46:40;8.00;89.30
21672;DHT22;10997;52.242;8.168;2023-04-03T17:51:41;7.70;90.00
21672;DHT22;10997;52.242;8.168;2023-04-03T17:56:42;7.50;90.30
21672;DHT22;10997;52.242;8.168;2023-04-03T18:01:47;7.30;90.70
21672;DHT22;10997;52.242;8.168;2023-04-03T18:06:50;7.10;91.00
21672;DHT22;10997;52.242;8.168;2023-04-03T18:11:51;6.90;91.40
21672;DHT22;10997;52.242;8.168;2023-04-03T18:16:52;6.70;91.90
21672;DHT22;10997;52.242;8.168;2023-04-03T18:21:56;6.50;91.90
21672;DHT22;10997;52.242;8.168;2023-04-03T18:27:03;6.30;92.40
21672;DHT22;10997;52.242;8.168;2023-04-03T18:32:06;6.10;92.70
21672;DHT22;10997;52.242;8.168;2023-04-03T18:37:08;6.00;93.30
21672;DHT22;10997;52.242;8.168;2023-04-03T18:42:14;5.80;94.20
21672;DHT22;10997;52.242;8.168;2023-04-03T18:47:15;5.60;94.40
21672;DHT22;10997;52.242;8.168;2023-04-03T18:52:16;5.50;94.80
21672;DHT22;10997;52.242;8.168;2023-04-03T18:57:16;5.30;94.80
21672;DHT22;10997;52.242;8.168;2023-04-03T19:02:17;5.20;95.60
21672;DHT22;10997;52.242;8.168;2023-04-03T19:07:21;5.10;95.60
21672;DHT22;10997;52.242;8.168;2023-04-03T19:12:22;4.90;96.40
21672;DHT22;10997;52.242;8.168;2023-04-03T19:17:22;4.80;97.10
21672;DHT22;10997;52.242;8.168;2023-04-03T19:22:23;4.60;97.80
21672;DHT22;10997;52.242;8.168;2023-04-03T19:27:24;4.50;98.50
21672;DHT22;10997;52.242;8.168;2023-04-03T19:32:25;4.30;99.20
21672;DHT22;10997;52.242;8.168;2023-04-03T19:37:26;4.20;99.70
21672;DHT22;10997;52.242;8.168;2023-04-03T19:42:28;4.10;99.90
21672;DHT22;10997;52.242;8.168;2023-04-03T19:47:29;3.90;99.90
21672;DHT22;10997;52.242;8.168;2023-04-03T19:52:30;3.60;99.90
21672;DHT22;10997;52.242;8.168;2023-04-03T19:57:31;3.40;99.90
21672;DHT22;10997;52.242;8.168;2023-04-03T20:02:31;3.30;99.90
21672;DHT22;10997;52.242;8.168;2023-04-03T20:07:32;3.20;99.90
21672;DHT22;10997;52.242;8.168;2023-04-03T20:12:32;3.20;99.90
21672;DHT22;10997;52.242;8.168;2023-04-03T20:17:35;3.10;99.90
21672;DHT22;10997;52.242;8.168;2023-04-03T20:22:37;3.00;99.90
21672;DHT22;10997;52.242;8.168;2023-04-03T20:27:38;2.90;99.90
21672;DHT22;10997;52.242;8.168;2023-04-03T20:32:39;2.80;99.90
21672;DHT22;10997;52.242;8.168;2023-04-03T20:37:40;2.70;99.90
21672;DHT22;10997;52.242;8.168;2023-04-03T20:42:42;2.60;99.90
21672;DHT22;10997;52.242;8.168;2023-04-03T20:47:43;2.40;99.90
21672;DHT22;10997;52.242;8.168;2023-04-03T20:52:43;2.40;99.90
21672;DHT22;10997;52.242;8.168;2023-04-03T20:57:44;2.20;99.90
21672;DHT22;10997;52.242;8.168;2023-04-03T21:02:45;2.10;99.90
21672;DHT22;10997;52.242;8.168;2023-04-03T21:24:09;1.70;99.90
21672;DHT22;10997;52.242;8.168;2023-04-03T21:29:10;1.70;99.90
21672;DHT22;10997;52.242;8.168;2023-04-03T21:34:10;1.70;99.90
21672;DHT22;10997;52.242;8.168;2023-04-03T21:39:13;1.60;99.90
21672;DHT22;10997;52.242;8.168;2023-04-03T21:44:13;1.60;99.90
21672;DHT22;10997;52.242;8.168;2023-04-03T21:49:14;1.50;99.90
21672;DHT22;10997;52.242;8.168;2023-04-03T21:54:15;1.50;99.90
21672;DHT22;10997;52.242;8.168;2023-04-03T21:59:16;1.40;99.90
21672;DHT22;10997;52.242;8.168;2023-04-03T22:04:17;1.30;99.90
21672;DHT22;10997;52.242;8.168;2023-04-03T22:09:17;1.30;99.90
21672;DHT22;10997;52.242;8.168;2023-04-03T22:14:18;1.20;99.90
21672;DHT22;10997;52.242;8.168;2023-04-03T22:19:19;1.20;99.90
21672;DHT22;10997;52.242;8.168;2023-04-03T22:24:20;1.10;99.90
21672;DHT22;10997;52.242;8.168;2023-04-03T22:29:21;0.90;99.90
21672;DHT22;10997;52.242;8.168;2023-04-03T22:34:21;0.90;99.90
21672;DHT22;10997;52.242;8.168;2023-04-03T22:39:23;0.80;99.90
21672;DHT22;10997;52.242;8.168;2023-04-03T22:44:24;0.80;99.90
21672;DHT22;10997;52.242;8.168;2023-04-03T22:49:24;0.80;99.90
21672;DHT22;10997;52.242;8.168;2023-04-03T22:54:25;0.70;99.90
21672;DHT22;10997;52.242;8.168;2023-04-03T22:59:26;0.70;99.90
21672;DHT22;10997;52.242;8.168;2023-04-03T23:04:26;0.70;99.90
21672;DHT22;10997;52.242;8.168;2023-04-03T23:09:27;0.60;99.90
21672;DHT22;10997;52.242;8.168;2023-04-03T23:14:27;0.60;99.90
21672;DHT22;10997;52.242;8.168;2023-04-03T23:19:28;0.50;99.90
21672;DHT22;10997;52.242;8.168;2023-04-03T23:24:28;0.40;99.90
21672;DHT22;10997;52.242;8.168;2023-04-03T23:29:29;0.40;99.90
21672;DHT22;10997;52.242;8.168;2023-04-03T23:34:30;0.30;99.90
21672;DHT22;10997;52.242;8.168;2023-04-03T23:39:30;0.30;99.90
21672;DHT22;10997;52.242;8.168;2023-04-03T23:44:32;0.30;99.90
21672;DHT22;10997;52.242;8.168;2023-04-03T23:49:32;0.20;99.90
21672;DHT22;10997;52.242;8.168;2023-04-03T23:54:33;0.20;99.90
21672;DHT22;10997;52.242;8.168;2023-04-03T23:59:34;0.10;99.90
